sensor_id;sensor_type;location;lat;lon;timestamp;temperature;humidity
48836;DHT22;62581;47.342;7.908;2023-01-06T00:01:05;8.60;99.90
48836;DHT22;62581;47.342;7.908;2023-01-06T00:03:33;8.60;99.90
48836;DHT22;62581;47.342;7.908;2023-01-06T00:06:03;8.60;99.90
48836;DHT22;62581;47.342;7.908;2023-01-06T00:08:31;8.60;99.90
48836;DHT22;62581;47.342;7.908;2023-01-06T00:11:03;8.60;99.90
48836;DHT22;62581;47.342;7.908;2023-01-06T00:13:30;8.50;99.90
48836;DHT22;62581;47.342;7.908;2023-01-06T00:15:57;8.50;99.90
48836;DHT22;62581;47.342;7.908;2023-01-06T00:18:24;8.50;99.90
48836;DHT22;62581;47.342;7.908;2023-01-06T00:20:51;8.50;99.90
48836;DHT22;62581;47.342;7.908;2023-01-06T00:23:19;8.50;99.90
48836;DHT22;62581;47.342;7.908;2023-01-06T00:25:49;8.50;99.90
48836;DHT22;62581;47.342;7.908;2023-01-06T00:28:16;8.50;99.90
48836;DHT22;62581;47.342;7.908;2023-01-06T00:30:44;8.40;99.90
48836;DHT22;62581;47.342;7.908;2023-01-06T00:33:11;8.50;99.90
48836;DHT22;62581;47.342;7.908;2023-01-06T00:35:38;8.40;99.90
48836;DHT22;62581;47.342;7.908;2023-01-06T00:38:05;8.40;99.90
48836;DHT22;62581;47.342;7.908;2023-01-06T00:40:34;8.40;99.90
48836;DHT22;62581;47.342;7.908;2023-01-06T00:43:01;8.40;99.90
48836;DHT22;62581;47.342;7.908;2023-01-06T00:45:28;8.30;99.90
48836;DHT22;62581;47.342;7.908;2023-01-06T00:47:55;8.30;99.90
48836;DHT22;62581;47.342;7.908;2023-01-06T00:50:22;8.30;99.90
48836;DHT22;62581;47.342;7.908;2023-01-06T00:52:49;8.20;99.90
48836;DHT22;62581;47.342;7.908;2023-01-06T00:55:16;8.20;99.90
48836;DHT22;62581;47.342;7.908;2023-01-06T00:57:45;8.20;99.90
48836;DHT22;62581;47.342;7.908;2023-01-06T01:00:12;8.30;99.90
48836;DHT22;62581;47.342;7.908;2023-01-06T01:02:39;8.20;99.90
48836;DHT22;62581;47.342;7.908;2023-01-06T01:05:07;8.20;99.90
48836;DHT22;62581;47.342;7.908;2023-01-06T01:07:34;8.20;99.90
48836;DHT22;62581;47.342;7.908;2023-01-06T01:10:02;8.20;99.90
48836;DHT22;62581;47.342;7.908;2023-01-06T01:12:29;8.10;99.90
48836;DHT22;62581;47.342;7.908;2023-01-06T01:14:58;8.10;99.90
48836;DHT22;62581;47.342;7.908;2023-01-06T01:17:26;8.10;99.90
48836;DHT22;62581;47.342;7.908;2023-01-06T01:19:54;8.10;99.90
48836;DHT22;62581;47.342;7.908;2023-01-06T01:22:23;8.10;99.90
48836;DHT22;62581;47.342;7.908;2023-01-06T01:24:50;8.10;99.90
48836;DHT22;62581;47.342;7.908;2023-01-06T01:27:17;8.10;99.90
48836;DHT22;62581;47.342;7.908;2023-01-06T01:29:44;8.10;99.90
48836;DHT22;62581;47.342;7.908;2023-01-06T01:32:13;8.10;99.90
48836;DHT22;62581;47.342;7.908;2023-01-06T01:34:40;8.10;99.90
48836;DHT22;62581;47.342;7.908;2023-01-06T01:37:07;8.10;99.90
48836;DHT22;62581;47.342;7.908;2023-01-06T01:39:34;8.10;99.90
48836;DHT22;62581;47.342;7.908;2023-01-06T01:42:01;8.10;99.90
48836;DHT22;62581;47.342;7.908;2023-01-06T01:44:52;8.10;99.90
48836;DHT22;62581;47.342;7.908;2023-01-06T01:47:26;8.00;99.90
48836;DHT22;62581;47.342;7.908;2023-01-06T01:49:57;8.00;99.90
48836;DHT22;62581;47.342;7.908;2023-01-06T01:52:25;8.00;99.90
48836;DHT22;62581;47.342;7.908;2023-01-06T01:54:54;8.00;99.90
48836;DHT22;62581;47.342;7.908;2023-01-06T01:57:25;8.00;99.90
48836;DHT22;62581;47.342;7.908;2023-01-06T01:59:53;8.00;99.90
48836;DHT22;62581;47.342;7.908;2023-01-06T02:02:22;8.00;99.90
48836;DHT22;62581;47.342;7.908;2023-01-06T02:04:52;8.00;99.90
48836;DHT22;62581;47.342;7.908;2023-01-06T02:07:22;8.00;99.90
48836;DHT22;62581;47.342;7.908;2023-01-06T02:09:57;8.00;99.90
48836;DHT22;62581;47.342;7.908;2023-01-06T02:12:25;8.00;99.90
48836;DHT22;62581;47.342;7.908;2023-01-06T02:14:52;8.00;99.90
48836;DHT22;62581;47.342;7.908;2023-01-06T02:17:40;8.00;99.90
48836;DHT22;62581;47.342;7.908;2023-01-06T02:20:24;7.90;99.90
48836;DHT22;62581;47.342;7.908;2023-01-06T02:32:14;8.10;99.90
48836;DHT22;62581;47.342;7.908;2023-01-06T02:34:50;8.00;99.90
48836;DHT22;62581;47.342;7.908;2023-01-06T02:37:32;8.10;99.90
48836;DHT22;62581;47.342;7.908;2023-01-06T02:40:24;8.00;99.90
48836;DHT22;62581;47.342;7.908;2023-01-06T02:43:03;8.00;99.90
48836;DHT22;62581;47.342;7.908;2023-01-06T02:45:38;8.00;99.90
48836;DHT22;62581;47.342;7.908;2023-01-06T02:48:13;8.00;99.90
48836;DHT22;62581;47.342;7.908;2023-01-06T02:50:45;8.00;99.90
48836;DHT22;62581;47.342;7.908;2023-01-06T02:53:18;8.00;99.90
48836;DHT22;62581;47.342;7.908;2023-01-06T02:55:50;8.00;99.90
48836;DHT22;62581;47.342;7.908;2023-01-06T02:58:22;8.10;99.90
48836;DHT22;62581;47.342;7.908;2023-01-06T03:00:53;8.10;99.90
48836;DHT22;62581;47.342;7.908;2023-01-06T03:03:28;8.10;99.90
48836;DHT22;62581;47.342;7.908;2023-01-06T03:06:00;8.20;99.90
48836;DHT22;62581;47.342;7.908;2023-01-06T03:08:29;8.10;99.90
48836;DHT22;62581;47.342;7.908;2023-01-06T03:10:58;8.10;99.90
48836;DHT22;62581;47.342;7.908;2023-01-06T03:13:32;8.10;99.90
48836;DHT22;62581;47.342;7.908;2023-01-06T03:16:00;8.10;99.90
48836;DHT22;62581;47.342;7.908;2023-01-06T03:18:29;8.10;99.90
48836;DHT22;62581;47.342;7.908;2023-01-06T03:20:57;8.10;99.90
48836;DHT22;62581;47.342;7.908;2023-01-06T03:23:25;8.10;99.90
48836;DHT22;62581;47.342;7.908;2023-01-06T03:25:52;8.10;99.90
48836;DHT22;62581;47.342;7.908;2023-01-06T03:28:19;8.10;99.90
48836;DHT22;62581;47.342;7.908;2023-01-06T03:30:52;8.10;99.90
48836;DHT22;62581;47.342;7.908;2023-01-06T03:33:24;8.10;99.90
48836;DHT22;62581;47.342;7.908;2023-01-06T03:36:02;8.00;99.90
48836;DHT22;62581;47.342;7.908;2023-01-06T03:38:41;8.00;99.90
48836;DHT22;62581;47.342;7.908;2023-01-06T03:41:19;7.90;99.90
48836;DHT22;62581;47.342;7.908;2023-01-06T03:44:17;7.90;99.90
48836;DHT22;62581;47.342;7.908;2023-01-06T03:46:51;7.90;99.90
48836;DHT22;62581;47.342;7.908;2023-01-06T03:49:22;7.90;99.90
48836;DHT22;62581;47.342;7.908;2023-01-06T03:51:57;7.90;99.90
48836;DHT22;62581;47.342;7.908;2023-01-06T03:54:33;8.00;99.90
48836;DHT22;62581;47.342;7.908;2023-01-06T03:57:06;8.00;99.90
48836;DHT22;62581;47.342;7.908;2023-01-06T03:59:39;8.00;99.90
48836;DHT22;62581;47.342;7.908;2023-01-06T04:02:07;8.00;99.90
48836;DHT22;62581;47.342;7.908;2023-01-06T04:04:35;8.00;99.90
48836;DHT22;62581;47.342;7.908;2023-01-06T04:07:04;8.10;99.90
48836;DHT22;62581;47.342;7.908;2023-01-06T04:09:31;8.10;99.90
48836;DHT22;62581;47.342;7.908;2023-01-06T04:11:58;8.10;99.90
48836;DHT22;62581;47.342;7.908;2023-01-06T04:14:42;8.10;99.90
48836;DHT22;62581;47.342;7.908;2023-01-06T04:17:09;8.10;99.90
48836;DHT22;62581;47.342;7.908;2023-01-06T04:19:36;8.00;99.90
48836;DHT22;62581;47.342;7.908;2023-01-06T04:22:04;8.00;99.90
48836;DHT22;62581;47.342;7.908;2023-01-06T04:24:31;8.00;99.90
48836;DHT22;62581;47.342;7.908;2023-01-06T04:26:58;8.00;99.90
48836;DHT22;62581;47.342;7.908;2023-01-06T04:29:25;7.90;99.90
48836;DHT22;62581;47.342;7.908;2023-01-06T04:31:52;7.80;99.90
48836;DHT22;62581;47.342;7.908;2023-01-06T04:34:19;7.80;99.90
48836;DHT22;62581;47.342;7.908;2023-01-06T04:36:46;7.70;99.90
48836;DHT22;62581;47.342;7.908;2023-01-06T04:39:15;7.70;99.90
48836;DHT22;62581;47.342;7.908;2023-01-06T04:41:41;7.70;99.90
48836;DHT22;62581;47.342;7.908;2023-01-06T04:44:08;7.70;99.90
48836;DHT22;62581;47.342;7.908;2023-01-06T04:46:35;7.60;99.90
48836;DHT22;62581;47.342;7.908;2023-01-06T04:49:02;7.60;99.90
48836;DHT22;62581;47.342;7.908;2023-01-06T04:51:30;7.60;99.90
48836;DHT22;62581;47.342;7.908;2023-01-06T04:53:56;7.60;99.90
48836;DHT22;62581;47.342;7.908;2023-01-06T04:56:25;7.50;99.90
48836;DHT22;62581;47.342;7.908;2023-01-06T04:58:53;7.50;99.90
48836;DHT22;62581;47.342;7.908;2023-01-06T05:01:21;7.40;99.90
48836;DHT22;62581;47.342;7.908;2023-01-06T05:03:48;7.50;99.90
48836;DHT22;62581;47.342;7.908;2023-01-06T05:06:15;7.40;99.90
48836;DHT22;62581;47.342;7.908;2023-01-06T05:08:43;7.30;99.90
48836;DHT22;62581;47.342;7.908;2023-01-06T05:11:14;7.30;99.90
48836;DHT22;62581;47.342;7.908;2023-01-06T05:13:43;7.20;99.90
48836;DHT22;62581;47.342;7.908;2023-01-06T05:16:10;7.20;99.90
48836;DHT22;62581;47.342;7.908;2023-01-06T05:18:38;7.20;99.90
48836;DHT22;62581;47.342;7.908;2023-01-06T05:21:05;7.10;99.90
48836;DHT22;62581;47.342;7.908;2023-01-06T05:23:35;7.10;99.90
48836;DHT22;62581;47.342;7.908;2023-01-06T05:26:05;7.10;99.90
48836;DHT22;62581;47.342;7.908;2023-01-06T05:28:34;7.10;99.90
48836;DHT22;62581;47.342;7.908;2023-01-06T05:31:03;7.10;99.90
48836;DHT22;62581;47.342;7.908;2023-01-06T05:33:31;7.10;99.90
48836;DHT22;62581;47.342;7.908;2023-01-06T05:35:59;7.00;99.90
48836;DHT22;62581;47.342;7.908;2023-01-06T05:38:26;7.10;99.90
48836;DHT22;62581;47.342;7.908;2023-01-06T05:40:53;7.00;99.90
48836;DHT22;62581;47.342;7.908;2023-01-06T05:43:21;7.00;99.90
48836;DHT22;62581;47.342;7.908;2023-01-06T05:45:48;7.00;99.90
48836;DHT22;62581;47.342;7.908;2023-01-06T05:48:16;7.00;99.90
48836;DHT22;62581;47.342;7.908;2023-01-06T05:50:44;7.10;99.90
48836;DHT22;62581;47.342;7.908;2023-01-06T05:53:11;7.10;99.90
48836;DHT22;62581;47.342;7.908;2023-01-06T05:55:38;7.10;99.90
48836;DHT22;62581;47.342;7.908;2023-01-06T05:58:05;7.20;99.90
48836;DHT22;62581;47.342;7.908;2023-01-06T06:00:32;7.20;99.90
48836;DHT22;62581;47.342;7.908;2023-01-06T06:02:59;7.20;99.90
48836;DHT22;62581;47.342;7.908;2023-01-06T06:05:27;7.20;99.90
48836;DHT22;62581;47.342;7.908;2023-01-06T06:07:55;7.20;99.90
48836;DHT22;62581;47.342;7.908;2023-01-06T06:10:23;7.20;99.90
48836;DHT22;62581;47.342;7.908;2023-01-06T06:12:50;7.30;99.90
48836;DHT22;62581;47.342;7.908;2023-01-06T06:15:17;7.20;99.90
48836;DHT22;62581;47.342;7.908;2023-01-06T06:17:44;7.20;99.90
48836;DHT22;62581;47.342;7.908;2023-01-06T06:20:11;7.20;99.90
48836;DHT22;62581;47.342;7.908;2023-01-06T06:22:40;7.30;99.90
48836;DHT22;62581;47.342;7.908;2023-01-06T06:25:07;7.30;99.90
48836;DHT22;62581;47.342;7.908;2023-01-06T06:27:34;7.30;99.90
48836;DHT22;62581;47.342;7.908;2023-01-06T06:30:03;7.30;99.90
48836;DHT22;62581;47.342;7.908;2023-01-06T06:32:30;7.40;99.90
48836;DHT22;62581;47.342;7.908;2023-01-06T06:34:58;7.40;99.90
48836;DHT22;62581;47.342;7.908;2023-01-06T06:37:24;7.30;99.90
48836;DHT22;62581;47.342;7.908;2023-01-06T06:39:53;7.30;99.90
48836;DHT22;62581;47.342;7.908;2023-01-06T06:42:20;7.30;99.90
48836;DHT22;62581;47.342;7.908;2023-01-06T06:44:47;7.30;99.90
48836;DHT22;62581;47.342;7.908;2023-01-06T06:47:14;7.30;99.90
48836;DHT22;62581;47.342;7.908;2023-01-06T06:49:41;7.30;99.90
48836;DHT22;62581;47.342;7.908;2023-01-06T06:52:08;7.30;99.90
48836;DHT22;62581;47.342;7.908;2023-01-06T06:54:35;7.30;99.90
48836;DHT22;62581;47.342;7.908;2023-01-06T06:57:03;7.30;99.90
48836;DHT22;62581;47.342;7.908;2023-01-06T06:59:30;7.30;99.90
48836;DHT22;62581;47.342;7.908;2023-01-06T07:01:57;7.30;99.90
48836;DHT22;62581;47.342;7.908;2023-01-06T07:04:24;7.30;99.90
48836;DHT22;62581;47.342;7.908;2023-01-06T07:06:51;7.20;99.90
48836;DHT22;62581;47.342;7.908;2023-01-06T07:09:18;7.30;99.90
48836;DHT22;62581;47.342;7.908;2023-01-06T07:11:45;7.30;99.90
48836;DHT22;62581;47.342;7.908;2023-01-06T07:14:14;7.30;99.90
48836;DHT22;62581;47.342;7.908;2023-01-06T07:16:41;7.30;99.90
48836;DHT22;62581;47.342;7.908;2023-01-06T07:19:08;7.30;99.90
48836;DHT22;62581;47.342;7.908;2023-01-06T07:21:35;7.30;99.90
48836;DHT22;62581;47.342;7.908;2023-01-06T07:24:03;7.30;99.90
48836;DHT22;62581;47.342;7.908;2023-01-06T07:26:30;7.30;99.90
48836;DHT22;62581;47.342;7.908;2023-01-06T07:28:57;7.40;99.90
48836;DHT22;62581;47.342;7.908;2023-01-06T07:31:25;7.40;99.90
48836;DHT22;62581;47.342;7.908;2023-01-06T07:33:52;7.40;99.90
48836;DHT22;62581;47.342;7.908;2023-01-06T07:36:19;7.40;99.90
48836;DHT22;62581;47.342;7.908;2023-01-06T07:38:46;7.50;99.90
48836;DHT22;62581;47.342;7.908;2023-01-06T07:41:13;7.40;99.90
48836;DHT22;62581;47.342;7.908;2023-01-06T07:43:40;7.50;99.90
48836;DHT22;62581;47.342;7.908;2023-01-06T07:46:07;7.50;99.90
48836;DHT22;62581;47.342;7.908;2023-01-06T07:48:36;7.50;99.90
48836;DHT22;62581;47.342;7.908;2023-01-06T07:51:03;7.50;99.90
48836;DHT22;62581;47.342;7.908;2023-01-06T07:53:31;7.50;99.90
48836;DHT22;62581;47.342;7.908;2023-01-06T07:55:58;7.50;99.90
48836;DHT22;62581;47.342;7.908;2023-01-06T07:58:25;7.50;99.90
48836;DHT22;62581;47.342;7.908;2023-01-06T08:00:52;7.50;99.90
48836;DHT22;62581;47.342;7.908;2023-01-06T08:03:20;7.40;99.90
48836;DHT22;62581;47.342;7.908;2023-01-06T08:05:48;7.50;99.90
48836;DHT22;62581;47.342;7.908;2023-01-06T08:08:15;7.50;99.90
48836;DHT22;62581;47.342;7.908;2023-01-06T08:10:42;7.60;99.90
48836;DHT22;62581;47.342;7.908;2023-01-06T08:13:10;7.60;99.90
48836;DHT22;62581;47.342;7.908;2023-01-06T08:15:37;7.70;99.90
48836;DHT22;62581;47.342;7.908;2023-01-06T08:18:04;7.70;99.90
48836;DHT22;62581;47.342;7.908;2023-01-06T08:20:31;7.80;99.90
48836;DHT22;62581;47.342;7.908;2023-01-06T08:23:01;7.90;99.90
48836;DHT22;62581;47.342;7.908;2023-01-06T08:25:28;7.90;99.90
48836;DHT22;62581;47.342;7.908;2023-01-06T08:27:56;7.90;99.90
48836;DHT22;62581;47.342;7.908;2023-01-06T08:30:23;8.00;99.90
48836;DHT22;62581;47.342;7.908;2023-01-06T08:32:50;8.00;99.90
48836;DHT22;62581;47.342;7.908;2023-01-06T08:35:17;8.00;99.90
48836;DHT22;62581;47.342;7.908;2023-01-06T08:37:44;8.10;99.90
48836;DHT22;62581;47.342;7.908;2023-01-06T08:40:13;8.20;99.90
48836;DHT22;62581;47.342;7.908;2023-01-06T08:42:40;8.20;99.90
48836;DHT22;62581;47.342;7.908;2023-01-06T08:45:07;8.20;99.90
48836;DHT22;62581;47.342;7.908;2023-01-06T08:47:34;8.30;99.90
48836;DHT22;62581;47.342;7.908;2023-01-06T08:50:01;8.30;99.90
48836;DHT22;62581;47.342;7.908;2023-01-06T08:52:28;8.30;99.90
48836;DHT22;62581;47.342;7.908;2023-01-06T08:54:55;8.30;99.90
48836;DHT22;62581;47.342;7.908;2023-01-06T08:57:25;8.30;99.90
48836;DHT22;62581;47.342;7.908;2023-01-06T08:59:52;8.30;99.90
48836;DHT22;62581;47.342;7.908;2023-01-06T09:02:19;8.30;99.90
48836;DHT22;62581;47.342;7.908;2023-01-06T09:04:47;8.30;99.90
48836;DHT22;62581;47.342;7.908;2023-01-06T09:07:14;8.40;99.90
48836;DHT22;62581;47.342;7.908;2023-01-06T09:09:41;8.40;99.90
48836;DHT22;62581;47.342;7.908;2023-01-06T09:12:08;8.40;99.90
48836;DHT22;62581;47.342;7.908;2023-01-06T09:14:37;8.40;99.90
48836;DHT22;62581;47.342;7.908;2023-01-06T09:17:04;8.30;99.90
48836;DHT22;62581;47.342;7.908;2023-01-06T09:19:31;8.40;99.90
48836;DHT22;62581;47.342;7.908;2023-01-06T09:21:58;8.40;99.90
48836;DHT22;62581;47.342;7.908;2023-01-06T09:24:25;8.40;99.90
48836;DHT22;62581;47.342;7.908;2023-01-06T09:26:52;8.50;99.90
48836;DHT22;62581;47.342;7.908;2023-01-06T09:29:19;8.50;99.90
48836;DHT22;62581;47.342;7.908;2023-01-06T09:31:47;8.70;99.90
48836;DHT22;62581;47.342;7.908;2023-01-06T09:34:14;8.70;99.90
48836;DHT22;62581;47.342;7.908;2023-01-06T09:36:41;8.70;99.90
48836;DHT22;62581;47.342;7.908;2023-01-06T09:39:08;8.70;99.90
48836;DHT22;62581;47.342;7.908;2023-01-06T09:42:01;8.70;99.90
48836;DHT22;62581;47.342;7.908;2023-01-06T09:44:33;8.70;99.90
48836;DHT22;62581;47.342;7.908;2023-01-06T09:47:03;8.80;99.90
48836;DHT22;62581;47.342;7.908;2023-01-06T09:49:32;8.80;99.90
48836;DHT22;62581;47.342;7.908;2023-01-06T09:52:05;8.90;99.90
48836;DHT22;62581;47.342;7.908;2023-01-06T09:54:35;9.00;99.90
48836;DHT22;62581;47.342;7.908;2023-01-06T09:57:08;9.00;99.90
48836;DHT22;62581;47.342;7.908;2023-01-06T09:59:44;9.00;99.90
48836;DHT22;62581;47.342;7.908;2023-01-06T10:02:18;9.00;99.90
48836;DHT22;62581;47.342;7.908;2023-01-06T10:04:48;9.00;99.90
48836;DHT22;62581;47.342;7.908;2023-01-06T10:07:20;9.00;99.90
48836;DHT22;62581;47.342;7.908;2023-01-06T10:09:55;9.00;99.90
48836;DHT22;62581;47.342;7.908;2023-01-06T10:12:35;9.10;99.90
48836;DHT22;62581;47.342;7.908;2023-01-06T10:15:15;9.20;99.90
48836;DHT22;62581;47.342;7.908;2023-01-06T10:17:56;9.30;99.90
48836;DHT22;62581;47.342;7.908;2023-01-06T10:20:52;9.40;99.90
48836;DHT22;62581;47.342;7.908;2023-01-06T10:23:32;9.50;99.90
48836;DHT22;62581;47.342;7.908;2023-01-06T10:26:05;9.70;99.90
48836;DHT22;62581;47.342;7.908;2023-01-06T10:28:37;9.70;99.90
48836;DHT22;62581;47.342;7.908;2023-01-06T10:31:07;9.80;99.90
48836;DHT22;62581;47.342;7.908;2023-01-06T10:33:39;9.90;99.90
48836;DHT22;62581;47.342;7.908;2023-01-06T10:36:11;9.90;99.90
48836;DHT22;62581;47.342;7.908;2023-01-06T10:38:42;10.00;99.90
48836;DHT22;62581;47.342;7.908;2023-01-06T10:41:18;10.10;99.90
48836;DHT22;62581;47.342;7.908;2023-01-06T10:43:48;10.10;99.90
48836;DHT22;62581;47.342;7.908;2023-01-06T10:46:15;10.10;99.90
48836;DHT22;62581;47.342;7.908;2023-01-06T10:48:44;10.00;99.90
48836;DHT22;62581;47.342;7.908;2023-01-06T10:51:32;10.00;99.90
48836;DHT22;62581;47.342;7.908;2023-01-06T10:54:03;10.00;99.90
48836;DHT22;62581;47.342;7.908;2023-01-06T10:56:31;10.00;99.90
48836;DHT22;62581;47.342;7.908;2023-01-06T10:59:05;10.00;99.90
48836;DHT22;62581;47.342;7.908;2023-01-06T11:01:33;10.00;99.90
48836;DHT22;62581;47.342;7.908;2023-01-06T11:04:08;10.00;99.90
48836;DHT22;62581;47.342;7.908;2023-01-06T11:06:38;10.00;99.90
48836;DHT22;62581;47.342;7.908;2023-01-06T11:09:26;10.10;99.90
48836;DHT22;62581;47.342;7.908;2023-01-06T11:11:56;10.20;99.90
48836;DHT22;62581;47.342;7.908;2023-01-06T11:14:27;10.10;99.90
48836;DHT22;62581;47.342;7.908;2023-01-06T11:16:57;10.10;99.90
48836;DHT22;62581;47.342;7.908;2023-01-06T11:19:34;10.00;99.90
48836;DHT22;62581;47.342;7.908;2023-01-06T11:22:02;10.00;99.90
48836;DHT22;62581;47.342;7.908;2023-01-06T11:24:30;10.00;99.90
48836;DHT22;62581;47.342;7.908;2023-01-06T11:26:58;10.00;99.90
48836;DHT22;62581;47.342;7.908;2023-01-06T11:29:26;10.00;99.90
48836;DHT22;62581;47.342;7.908;2023-01-06T11:31:55;10.10;99.90
48836;DHT22;62581;47.342;7.908;2023-01-06T11:34:23;10.10;99.90
48836;DHT22;62581;47.342;7.908;2023-01-06T11:36:52;10.20;99.90
48836;DHT22;62581;47.342;7.908;2023-01-06T11:39:25;10.20;99.90
48836;DHT22;62581;47.342;7.908;2023-01-06T11:41:55;10.30;99.90
48836;DHT22;62581;47.342;7.908;2023-01-06T11:44:29;10.30;99.90
48836;DHT22;62581;47.342;7.908;2023-01-06T11:46:59;10.20;99.90
48836;DHT22;62581;47.342;7.908;2023-01-06T11:49:30;10.20;99.90
48836;DHT22;62581;47.342;7.908;2023-01-06T11:52:01;10.30;99.90
48836;DHT22;62581;47.342;7.908;2023-01-06T11:54:34;10.30;99.90
48836;DHT22;62581;47.342;7.908;2023-01-06T11:57:14;10.20;99.90
48836;DHT22;62581;47.342;7.908;2023-01-06T11:59:57;10.10;99.90
48836;DHT22;62581;47.342;7.908;2023-01-06T12:02:31;10.10;99.90
48836;DHT22;62581;47.342;7.908;2023-01-06T12:05:01;10.10;99.90
48836;DHT22;62581;47.342;7.908;2023-01-06T12:07:32;10.10;99.90
48836;DHT22;62581;47.342;7.908;2023-01-06T12:10:10;10.10;99.90
48836;DHT22;62581;47.342;7.908;2023-01-06T12:12:40;10.00;99.90
48836;DHT22;62581;47.342;7.908;2023-01-06T12:15:11;10.10;99.90
48836;DHT22;62581;47.342;7.908;2023-01-06T12:17:42;10.10;99.90
48836;DHT22;62581;47.342;7.908;2023-01-06T12:20:15;10.10;99.90
48836;DHT22;62581;47.342;7.908;2023-01-06T12:22:47;10.20;99.90
48836;DHT22;62581;47.342;7.908;2023-01-06T12:25:18;10.30;99.90
48836;DHT22;62581;47.342;7.908;2023-01-06T12:27:49;10.30;99.90
48836;DHT22;62581;47.342;7.908;2023-01-06T12:30:32;10.40;99.90
48836;DHT22;62581;47.342;7.908;2023-01-06T12:33:04;10.40;99.90
48836;DHT22;62581;47.342;7.908;2023-01-06T12:35:33;10.50;99.90
48836;DHT22;62581;47.342;7.908;2023-01-06T12:38:10;10.50;99.90
48836;DHT22;62581;47.342;7.908;2023-01-06T12:40:43;10.50;99.90
48836;DHT22;62581;47.342;7.908;2023-01-06T12:43:15;10.50;99.90
48836;DHT22;62581;47.342;7.908;2023-01-06T12:45:51;10.50;99.90
48836;DHT22;62581;47.342;7.908;2023-01-06T12:48:28;10.50;99.90
48836;DHT22;62581;47.342;7.908;2023-01-06T12:50:59;10.50;99.90
48836;DHT22;62581;47.342;7.908;2023-01-06T12:53:33;10.50;99.90
48836;DHT22;62581;47.342;7.908;2023-01-06T12:56:13;10.50;99.90
48836;DHT22;62581;47.342;7.908;2023-01-06T12:58:49;10.50;99.90
48836;DHT22;62581;47.342;7.908;2023-01-06T13:01:27;10.50;99.90
48836;DHT22;62581;47.342;7.908;2023-01-06T13:07:03;10.40;99.90
48836;DHT22;62581;47.342;7.908;2023-01-06T13:09:44;10.40;99.90
48836;DHT22;62581;47.342;7.908;2023-01-06T13:12:33;10.50;99.90
48836;DHT22;62581;47.342;7.908;2023-01-06T13:15:05;10.60;99.90
48836;DHT22;62581;47.342;7.908;2023-01-06T13:17:38;10.70;99.90
48836;DHT22;62581;47.342;7.908;2023-01-06T13:20:14;10.70;99.90
48836;DHT22;62581;47.342;7.908;2023-01-06T13:22:51;10.80;99.90
48836;DHT22;62581;47.342;7.908;2023-01-06T13:25:40;10.80;99.90
48836;DHT22;62581;47.342;7.908;2023-01-06T13:28:18;10.70;99.90
48836;DHT22;62581;47.342;7.908;2023-01-06T13:31:08;10.70;99.90
48836;DHT22;62581;47.342;7.908;2023-01-06T13:33:57;10.60;99.90
48836;DHT22;62581;47.342;7.908;2023-01-06T13:39:33;10.40;99.90
48836;DHT22;62581;47.342;7.908;2023-01-06T13:42:06;10.30;99.90
48836;DHT22;62581;47.342;7.908;2023-01-06T13:44:38;10.30;99.90
48836;DHT22;62581;47.342;7.908;2023-01-06T13:47:06;10.20;99.90
48836;DHT22;62581;47.342;7.908;2023-01-06T13:49:36;10.20;99.90
48836;DHT22;62581;47.342;7.908;2023-01-06T13:52:05;10.10;99.90
48836;DHT22;62581;47.342;7.908;2023-01-06T13:55:03;10.10;99.90
48836;DHT22;62581;47.342;7.908;2023-01-06T13:57:34;10.00;99.90
48836;DHT22;62581;47.342;7.908;2023-01-06T14:00:22;9.90;99.90
48836;DHT22;62581;47.342;7.908;2023-01-06T14:05:55;9.90;99.90
48836;DHT22;62581;47.342;7.908;2023-01-06T14:08:26;9.90;99.90
48836;DHT22;62581;47.342;7.908;2023-01-06T14:11:03;9.90;99.90
48836;DHT22;62581;47.342;7.908;2023-01-06T14:13:37;9.80;99.90
48836;DHT22;62581;47.342;7.908;2023-01-06T14:16:07;9.80;99.90
48836;DHT22;62581;47.342;7.908;2023-01-06T14:18:38;9.80;99.90
48836;DHT22;62581;47.342;7.908;2023-01-06T14:21:16;9.80;99.90
48836;DHT22;62581;47.342;7.908;2023-01-06T14:23:52;9.80;99.90
48836;DHT22;62581;47.342;7.908;2023-01-06T14:26:20;9.70;99.90
48836;DHT22;62581;47.342;7.908;2023-01-06T14:28:49;9.70;99.90
48836;DHT22;62581;47.342;7.908;2023-01-06T14:31:46;9.70;99.90
48836;DHT22;62581;47.342;7.908;2023-01-06T14:34:16;9.70;99.90
48836;DHT22;62581;47.342;7.908;2023-01-06T14:36:45;9.60;99.90
48836;DHT22;62581;47.342;7.908;2023-01-06T14:39:24;9.60;99.90
48836;DHT22;62581;47.342;7.908;2023-01-06T14:41:54;9.60;99.90
48836;DHT22;62581;47.342;7.908;2023-01-06T14:44:26;9.50;99.90
48836;DHT22;62581;47.342;7.908;2023-01-06T14:46:58;9.40;99.90
48836;DHT22;62581;47.342;7.908;2023-01-06T14:49:32;9.40;99.90
48836;DHT22;62581;47.342;7.908;2023-01-06T14:52:06;9.40;99.90
48836;DHT22;62581;47.342;7.908;2023-01-06T14:54:37;9.50;99.90
48836;DHT22;62581;47.342;7.908;2023-01-06T14:57:04;9.50;99.90
48836;DHT22;62581;47.342;7.908;2023-01-06T14:59:33;9.50;99.90
48836;DHT22;62581;47.342;7.908;2023-01-06T15:02:02;9.50;99.90
48836;DHT22;62581;47.342;7.908;2023-01-06T15:04:31;9.50;99.90
48836;DHT22;62581;47.342;7.908;2023-01-06T15:07:01;9.50;99.90
48836;DHT22;62581;47.342;7.908;2023-01-06T15:09:30;9.50;99.90
48836;DHT22;62581;47.342;7.908;2023-01-06T15:11:57;9.50;99.90
48836;DHT22;62581;47.342;7.908;2023-01-06T15:14:30;9.50;99.90
48836;DHT22;62581;47.342;7.908;2023-01-06T15:17:01;9.40;99.90
48836;DHT22;62581;47.342;7.908;2023-01-06T15:19:30;9.40;99.90
48836;DHT22;62581;47.342;7.908;2023-01-06T15:21:58;9.40;99.90
48836;DHT22;62581;47.342;7.908;2023-01-06T15:24:28;9.40;99.90
48836;DHT22;62581;47.342;7.908;2023-01-06T15:27:04;9.40;99.90
48836;DHT22;62581;47.342;7.908;2023-01-06T15:29:31;9.40;99.90
48836;DHT22;62581;47.342;7.908;2023-01-06T15:32:00;9.40;99.90
48836;DHT22;62581;47.342;7.908;2023-01-06T15:34:32;9.40;99.90
48836;DHT22;62581;47.342;7.908;2023-01-06T15:37:03;9.40;99.90
48836;DHT22;62581;47.342;7.908;2023-01-06T15:39:31;9.30;99.90
48836;DHT22;62581;47.342;7.908;2023-01-06T15:41:59;9.40;99.90
48836;DHT22;62581;47.342;7.908;2023-01-06T15:44:29;9.30;99.90
48836;DHT22;62581;47.342;7.908;2023-01-06T15:47:05;9.30;99.90
48836;DHT22;62581;47.342;7.908;2023-01-06T15:49:36;9.30;99.90
48836;DHT22;62581;47.342;7.908;2023-01-06T15:52:06;9.30;99.90
48836;DHT22;62581;47.342;7.908;2023-01-06T15:54:35;9.30;99.90
48836;DHT22;62581;47.342;7.908;2023-01-06T15:57:08;9.20;99.90
48836;DHT22;62581;47.342;7.908;2023-01-06T15:59:36;9.30;99.90
48836;DHT22;62581;47.342;7.908;2023-01-06T16:02:16;9.30;99.90
48836;DHT22;62581;47.342;7.908;2023-01-06T16:04:44;9.30;99.90
48836;DHT22;62581;47.342;7.908;2023-01-06T16:07:20;9.30;99.90
48836;DHT22;62581;47.342;7.908;2023-01-06T16:09:48;9.30;99.90
48836;DHT22;62581;47.342;7.908;2023-01-06T16:12:17;9.20;99.90
48836;DHT22;62581;47.342;7.908;2023-01-06T16:14:45;9.20;99.90
48836;DHT22;62581;47.342;7.908;2023-01-06T16:17:23;9.20;99.90
48836;DHT22;62581;47.342;7.908;2023-01-06T16:19:54;9.20;99.90
48836;DHT22;62581;47.342;7.908;2023-01-06T16:22:35;9.20;99.90